createdAt,value
2018-09-05T00:01:57.493Z,8.60
2018-09-05T00:06:52.424Z,8.23
2018-09-05T00:11:47.317Z,8.17
2018-09-05T00:16:45.015Z,8.17
2018-09-05T00:21:39.801Z,8.20
2018-09-05T00:26:34.633Z,8.80
2018-09-05T00:31:29.466Z,7.97
2018-09-05T00:36:24.324Z,8.97
2018-09-05T00:41:19.110Z,8.93
2018-09-05T00:46:13.951Z,8.97
2018-09-05T00:51:08.737Z,9.13
2018-09-05T00:56:03.532Z,9.13
2018-09-05T01:00:58.341Z,8.80
2018-09-05T01:05:53.152Z,8.70
2018-09-05T01:10:47.986Z,8.83
2018-09-05T01:15:42.860Z,8.27
2018-09-05T01:20:37.762Z,8.90
2018-09-05T01:25:32.521Z,9.07
2018-09-05T01:30:28.638Z,8.90
2018-09-05T01:35:23.437Z,9.70
2018-09-05T01:40:18.257Z,8.73
2018-09-05T01:45:13.081Z,8.90
2018-09-05T01:50:07.913Z,9.43
2018-09-05T01:55:02.701Z,9.63
2018-09-05T01:59:57.477Z,8.93
2018-09-05T02:04:52.289Z,10.30
2018-09-05T02:09:47.078Z,9.07
2018-09-05T02:14:41.919Z,9.63
2018-09-05T02:19:36.693Z,10.27
2018-09-05T02:24:31.522Z,9.53
2018-09-05T02:29:26.292Z,9.73
2018-09-05T02:34:21.053Z,8.97
2018-09-05T02:39:15.850Z,9.90
2018-09-05T02:44:15.785Z,9.03
2018-09-05T02:49:10.853Z,9.33
2018-09-05T02:54:05.707Z,9.97
2018-09-05T02:59:00.446Z,8.37
2018-09-05T03:03:55.297Z,9.87
2018-09-05T03:08:56.754Z,9.47
2018-09-05T03:13:51.594Z,10.27
2018-09-05T03:18:46.371Z,9.83
2018-09-05T03:23:41.149Z,9.83
2018-09-05T03:28:35.926Z,8.90
2018-09-05T03:33:30.751Z,9.03
2018-09-05T03:38:25.520Z,8.70
2018-09-05T03:43:20.309Z,9.23
2018-09-05T03:48:15.092Z,8.80
2018-09-05T03:53:09.849Z,9.40
2018-09-05T03:58:04.709Z,10.53
2018-09-05T04:02:59.574Z,10.10
2018-09-05T04:07:54.380Z,10.27
2018-09-05T04:12:49.165Z,11.40
2018-09-05T04:17:43.940Z,9.30
2018-09-05T04:22:38.725Z,10.33
2018-09-05T04:27:33.542Z,11.43
2018-09-05T04:32:28.363Z,11.30
2018-09-05T04:37:23.182Z,11.30
2018-09-05T04:42:18.056Z,11.33
2018-09-05T04:47:12.816Z,11.43
2018-09-05T04:52:07.640Z,12.13
2018-09-05T04:57:02.405Z,10.93
2018-09-05T05:01:57.229Z,10.87
2018-09-05T05:06:52.041Z,11.20
2018-09-05T05:11:46.845Z,11.10
2018-09-05T05:16:41.634Z,11.40
2018-09-05T05:21:36.437Z,11.17
2018-09-05T05:26:31.260Z,12.27
2018-09-05T05:31:26.031Z,12.03
2018-09-05T05:36:20.828Z,11.97
2018-09-05T05:41:15.745Z,11.80
2018-09-05T05:46:10.850Z,12.70
2018-09-05T05:51:06.044Z,12.20
2018-09-05T05:56:00.841Z,12.87
2018-09-05T06:00:55.674Z,12.77
2018-09-05T06:05:50.491Z,11.97
2018-09-05T06:10:45.301Z,11.90
2018-09-05T06:15:40.133Z,12.17
2018-09-05T06:20:34.882Z,11.60
2018-09-05T06:25:29.653Z,11.90
2018-09-05T06:30:24.528Z,14.37
2018-09-05T06:35:19.264Z,14.67
2018-09-05T06:40:14.009Z,15.10
2018-09-05T06:45:08.989Z,15.10
2018-09-05T06:50:03.657Z,16.80
2018-09-05T06:55:01.313Z,16.23
2018-09-05T06:59:56.173Z,17.67
2018-09-05T07:04:51.237Z,16.63
2018-09-05T07:09:46.072Z,16.80
2018-09-05T07:14:40.960Z,15.13
2018-09-05T07:19:35.774Z,15.63
2018-09-05T07:24:30.598Z,17.63
2018-09-05T07:29:25.365Z,16.17
2018-09-05T07:34:20.153Z,16.73
2018-09-05T07:39:14.916Z,13.77
2018-09-05T07:44:09.724Z,16.77
2018-09-05T07:49:04.542Z,16.57
2018-09-05T07:53:59.351Z,15.37
2018-09-05T07:58:54.213Z,15.83
2018-09-05T08:03:49.025Z,17.07
2018-09-05T08:08:43.843Z,16.23
2018-09-05T08:13:38.632Z,15.77
2018-09-05T08:18:34.082Z,16.13
2018-09-05T08:23:28.903Z,16.00
2018-09-05T08:28:23.693Z,15.20
2018-09-05T08:33:18.732Z,15.17
2018-09-05T08:38:13.504Z,14.60
2018-09-05T08:43:08.407Z,16.47
2018-09-05T08:48:05.143Z,14.03
2018-09-05T08:53:00.051Z,15.57
2018-09-05T08:57:54.923Z,14.53
2018-09-05T09:02:49.898Z,11.73
2018-09-05T09:07:44.845Z,13.80
2018-09-05T09:12:39.705Z,14.37
2018-09-05T09:17:34.577Z,14.03
2018-09-05T09:22:29.497Z,14.37
2018-09-05T09:27:24.413Z,14.83
2018-09-05T09:32:19.274Z,14.50
2018-09-05T09:37:14.082Z,12.57
2018-09-05T09:42:09.049Z,14.20
2018-09-05T09:47:03.948Z,13.47
2018-09-05T09:52:03.970Z,13.33
2018-09-05T09:56:59.741Z,13.03
2018-09-05T10:01:59.722Z,13.53
2018-09-05T10:06:59.612Z,10.97
2018-09-05T10:11:59.407Z,12.20
2018-09-05T10:16:59.225Z,11.93
2018-09-05T10:21:55.304Z,13.53
2018-09-05T10:26:50.109Z,12.07
2018-09-05T10:31:45.009Z,10.97
2018-09-05T10:36:40.737Z,10.43
2018-09-05T10:41:35.600Z,10.40
2018-09-05T10:46:30.449Z,10.30
2018-09-05T10:51:30.343Z,9.87
2018-09-05T10:56:25.161Z,10.77
2018-09-05T11:01:20.027Z,9.17
2018-09-05T11:06:14.833Z,7.97
2018-09-05T11:11:16.120Z,7.47
2018-09-05T11:16:11.004Z,6.95
2018-09-05T11:21:05.961Z,7.03
2018-09-05T11:26:00.794Z,6.85
2018-09-05T11:30:56.137Z,7.13
2018-09-05T11:35:50.949Z,6.72
2018-09-05T11:40:48.722Z,5.97
2018-09-05T11:45:43.681Z,6.78
2018-09-05T11:50:38.473Z,5.85
2018-09-05T11:55:33.265Z,5.95
2018-09-05T12:00:28.053Z,6.75
2018-09-05T12:05:22.913Z,5.67
2018-09-05T12:10:17.772Z,5.80
2018-09-05T12:15:14.095Z,5.65
2018-09-05T12:20:08.897Z,5.22
2018-09-05T12:25:03.678Z,5.53
2018-09-05T12:29:58.467Z,5.62
2018-09-05T12:34:53.264Z,5.30
2018-09-05T12:39:48.131Z,5.15
2018-09-05T12:44:43.381Z,5.57
2018-09-05T12:49:38.201Z,4.92
2018-09-05T12:54:33.120Z,4.70
2018-09-05T12:59:27.888Z,4.13
2018-09-05T13:04:22.678Z,3.40
2018-09-05T13:09:17.455Z,3.77
2018-09-05T13:14:12.280Z,3.70
2018-09-05T13:19:07.206Z,3.98
2018-09-05T13:24:02.060Z,3.70
2018-09-05T13:28:57.028Z,3.70
2018-09-05T13:33:51.810Z,4.30
2018-09-05T13:38:46.617Z,4.60
2018-09-05T13:43:41.399Z,4.43
2018-09-05T13:48:36.215Z,4.30
2018-09-05T13:53:31.404Z,4.17
2018-09-05T13:58:26.342Z,4.10
2018-09-05T14:03:21.181Z,4.17
2018-09-05T14:08:16.009Z,4.40
2018-09-05T14:13:10.766Z,4.60
2018-09-05T14:18:05.605Z,4.57
2018-09-05T14:23:00.364Z,4.40
2018-09-05T14:27:55.166Z,4.28
2018-09-05T14:32:50.444Z,4.77
2018-09-05T14:37:45.621Z,4.15
2018-09-05T14:42:40.552Z,3.60
2018-09-05T14:47:35.445Z,2.92
2018-09-05T14:52:30.290Z,2.90
2018-09-05T14:57:25.199Z,4.00
2018-09-05T15:02:21.047Z,3.27
2018-09-05T15:07:15.898Z,3.30
2018-09-05T15:12:10.755Z,3.85
2018-09-05T15:17:05.617Z,3.65
2018-09-05T15:22:00.396Z,4.40
2018-09-05T15:26:55.173Z,4.10
2018-09-05T15:31:49.986Z,3.72
2018-09-05T15:36:45.054Z,3.53
2018-09-05T15:41:39.972Z,3.90
2018-09-05T15:46:34.805Z,3.53
2018-09-05T15:51:29.590Z,3.02
2018-09-05T15:56:24.368Z,3.30
2018-09-05T16:01:21.249Z,3.27
2018-09-05T16:06:16.148Z,3.50
2018-09-05T16:11:10.957Z,3.33
2018-09-05T16:16:05.843Z,3.65
2018-09-05T16:21:00.644Z,3.75
2018-09-05T16:25:55.433Z,3.20
2018-09-05T16:30:50.214Z,3.55
2018-09-05T16:35:45.066Z,3.67
2018-09-05T16:40:39.961Z,3.90
2018-09-05T16:45:34.857Z,3.90
2018-09-05T16:50:29.657Z,3.70
2018-09-05T16:55:24.505Z,4.10
2018-09-05T17:00:19.330Z,4.43
2018-09-05T17:05:14.151Z,4.50
2018-09-05T17:10:09.005Z,4.70
2018-09-05T17:15:03.781Z,4.20
2018-09-05T17:19:58.585Z,3.70
2018-09-05T17:24:53.470Z,3.27
2018-09-05T17:29:48.266Z,3.40
2018-09-05T17:34:43.081Z,3.27
2018-09-05T17:39:37.901Z,3.10
2018-09-05T17:44:32.687Z,3.00
2018-09-05T17:49:27.482Z,3.90
2018-09-05T17:54:22.290Z,3.53
2018-09-05T17:59:17.063Z,3.40
2018-09-05T18:04:11.909Z,3.30
2018-09-05T18:09:09.278Z,3.63
2018-09-05T18:14:04.176Z,3.90
2018-09-05T18:18:59.048Z,3.80
2018-09-05T18:23:53.826Z,3.43
2018-09-05T18:28:48.618Z,3.90
2018-09-05T18:33:43.465Z,3.07
2018-09-05T18:38:38.334Z,4.20
2018-09-05T18:43:33.124Z,3.10
2018-09-05T18:48:27.995Z,3.60
2018-09-05T18:53:22.801Z,3.73
2018-09-05T18:58:17.605Z,3.07
2018-09-05T19:03:14.309Z,4.00
2018-09-05T19:08:09.163Z,3.53
2018-09-05T19:13:03.961Z,3.60
2018-09-05T19:17:58.781Z,3.30
2018-09-05T19:22:53.625Z,3.60
2018-09-05T19:27:48.456Z,3.40
2018-09-05T19:32:43.275Z,5.30
2018-09-05T19:37:38.552Z,5.50
2018-09-05T19:42:33.428Z,5.87
2018-09-05T19:47:28.250Z,4.77
2018-09-05T19:52:23.052Z,5.03
2018-09-05T19:57:17.890Z,4.97
2018-09-05T20:02:12.817Z,4.73
2018-09-05T20:07:07.738Z,4.90
2018-09-05T20:12:02.539Z,6.80
2018-09-05T20:16:57.361Z,4.40
2018-09-05T20:21:52.713Z,4.30
2018-09-05T20:26:47.498Z,3.97
2018-09-05T20:31:42.345Z,4.13
2018-09-05T20:36:37.165Z,3.40
2018-09-05T20:41:32.517Z,3.40
2018-09-05T20:46:27.509Z,3.70
2018-09-05T20:51:22.492Z,4.20
2018-09-05T20:56:17.328Z,3.67
2018-09-05T21:01:12.236Z,3.57
2018-09-05T21:06:07.533Z,3.67
2018-09-05T21:11:02.365Z,4.03
2018-09-05T21:15:57.330Z,4.03
2018-09-05T21:20:52.193Z,4.13
2018-09-05T21:25:47.081Z,4.30
2018-09-05T21:30:41.983Z,3.70
2018-09-05T21:35:36.810Z,4.70
2018-09-05T21:40:31.723Z,3.73
2018-09-05T21:45:26.645Z,3.53
2018-09-05T21:50:21.677Z,3.97
2018-09-05T21:55:16.612Z,4.37
2018-09-05T22:00:12.003Z,3.73
2018-09-05T22:05:06.884Z,3.60
2018-09-05T22:10:01.734Z,3.70
2018-09-05T22:14:56.581Z,3.70
2018-09-05T22:19:51.529Z,4.47
2018-09-05T22:24:46.397Z,3.80
2018-09-05T22:29:41.324Z,4.13
2018-09-05T22:34:36.302Z,4.40
2018-09-05T22:39:31.167Z,3.77
2018-09-05T22:44:42.467Z,4.50
2018-09-05T23:02:10.899Z,4.17
2018-09-05T23:07:22.239Z,4.20
2018-09-05T23:12:33.586Z,4.13
2018-09-05T23:17:46.844Z,4.60
2018-09-05T23:24:54.236Z,4.53
2018-09-05T23:29:49.093Z,4.87
2018-09-05T23:34:44.038Z,5.23
2018-09-05T23:39:38.930Z,4.77
2018-09-05T23:44:33.815Z,5.13
2018-09-05T23:49:29.537Z,5.40
2018-09-05T23:54:24.436Z,4.90
2018-09-05T23:59:19.218Z,5.07
